createdAt,value
2022-11-15T00:00:10.839Z,65.03
2022-11-15T00:03:16.849Z,60.83
2022-11-15T00:06:21.146Z,56.45
2022-11-15T00:09:25.442Z,59.53
2022-11-15T00:12:30.120Z,62.20
2022-11-15T00:15:41.909Z,64.47
2022-11-15T00:18:50.406Z,63.60
2022-11-15T00:21:55.120Z,70.78
2022-11-15T00:24:59.487Z,72.53
2022-11-15T00:28:04.460Z,66.07
2022-11-15T00:31:15.752Z,63.70
2022-11-15T00:34:20.095Z,63.15
2022-11-15T00:37:25.061Z,65.95
2022-11-15T00:40:30.387Z,62.30
2022-11-15T00:43:35.733Z,62.40
2022-11-15T00:46:40.255Z,62.35
2022-11-15T00:49:44.634Z,58.33
2022-11-15T00:52:49.548Z,62.55
2022-11-15T00:55:54.326Z,58.25
2022-11-15T00:58:58.840Z,63.53
2022-11-15T01:02:03.531Z,60.35
2022-11-15T01:05:08.796Z,56.53
2022-11-15T01:08:15.396Z,51.85
2022-11-15T01:11:19.789Z,49.53
2022-11-15T01:14:25.723Z,55.50
2022-11-15T01:17:31.717Z,53.25
2022-11-15T01:20:43.626Z,50.22
2022-11-15T01:23:48.192Z,53.22
2022-11-15T01:26:52.973Z,51.78
2022-11-15T01:29:57.678Z,50.00
2022-11-15T01:33:02.211Z,47.13
2022-11-15T01:36:08.745Z,45.63
2022-11-15T01:39:13.333Z,49.17
2022-11-15T01:42:19.552Z,53.72
2022-11-15T01:45:24.346Z,60.83
2022-11-15T01:48:36.103Z,65.97
2022-11-15T01:51:41.016Z,65.85
2022-11-15T01:54:45.968Z,54.67
2022-11-15T01:57:54.440Z,59.67
2022-11-15T02:00:58.955Z,51.20
2022-11-15T02:04:30.364Z,55.95
2022-11-15T02:07:36.916Z,46.42
2022-11-15T02:10:41.438Z,45.33
2022-11-15T02:13:46.606Z,46.08
2022-11-15T02:17:09.566Z,42.63
2022-11-15T02:20:48.328Z,47.20
2022-11-15T02:24:07.746Z,47.83
2022-11-15T02:27:47.591Z,45.53
2022-11-15T02:31:16.983Z,44.85
2022-11-15T02:34:44.316Z,37.80
2022-11-15T02:38:13.744Z,43.38
2022-11-15T02:41:49.333Z,43.72
2022-11-15T02:44:57.808Z,41.97
2022-11-15T02:48:03.394Z,44.00
2022-11-15T02:51:08.402Z,42.65
2022-11-15T02:54:22.364Z,44.10
2022-11-15T02:57:39.705Z,38.13
2022-11-15T03:00:55.319Z,39.03
2022-11-15T03:04:17.236Z,39.03
2022-11-15T03:07:36.395Z,39.92
2022-11-15T03:10:46.980Z,45.03
2022-11-15T03:14:09.463Z,46.08
2022-11-15T03:17:22.605Z,42.70
2022-11-15T03:20:29.050Z,44.55
2022-11-15T03:23:35.508Z,42.97
2022-11-15T03:26:42.140Z,42.70
2022-11-15T03:30:01.533Z,38.15
2022-11-15T03:33:07.429Z,39.15
2022-11-15T03:36:12.246Z,40.33
2022-11-15T03:39:20.623Z,38.85
2022-11-15T03:42:40.688Z,40.45
2022-11-15T03:45:52.102Z,40.20
2022-11-15T03:49:12.500Z,41.38
2022-11-15T03:52:20.045Z,40.13
2022-11-15T03:55:24.475Z,43.33
2022-11-15T03:58:29.083Z,44.67
2022-11-15T04:01:34.022Z,38.28
2022-11-15T04:04:38.685Z,37.80
2022-11-15T04:07:43.189Z,42.42
2022-11-15T04:10:50.503Z,47.53
2022-11-15T04:13:54.772Z,39.78
2022-11-15T04:16:59.366Z,44.72
2022-11-15T04:20:28.035Z,41.25
2022-11-15T04:23:50.997Z,37.65
2022-11-15T04:26:55.385Z,44.20
2022-11-15T04:30:00.189Z,39.72
2022-11-15T04:33:05.077Z,41.70
2022-11-15T04:36:28.153Z,39.25
2022-11-15T04:39:32.563Z,44.13
2022-11-15T04:42:37.103Z,42.83
2022-11-15T04:45:41.524Z,40.97
2022-11-15T04:48:46.185Z,45.33
2022-11-15T04:51:50.986Z,40.03
2022-11-15T04:54:55.443Z,44.25
2022-11-15T04:58:03.891Z,39.60
2022-11-15T05:01:13.165Z,46.65
2022-11-15T05:04:20.727Z,44.83
2022-11-15T05:07:25.222Z,40.55
2022-11-15T05:10:29.818Z,47.70
2022-11-15T05:13:34.974Z,44.42
2022-11-15T05:16:39.768Z,44.42
2022-11-15T05:19:45.611Z,49.10
2022-11-15T05:22:50.228Z,49.92
2022-11-15T05:25:59.309Z,46.53
2022-11-15T05:29:04.037Z,43.33
2022-11-15T05:32:10.003Z,47.58
2022-11-15T05:35:23.748Z,43.00
2022-11-15T05:41:45.452Z,51.60
2022-11-15T05:44:51.007Z,40.72
2022-11-15T05:47:57.820Z,42.55
2022-11-15T05:51:03.658Z,46.10
2022-11-15T05:54:08.773Z,43.92
2022-11-15T05:57:13.590Z,43.22
2022-11-15T06:00:18.658Z,44.90
2022-11-15T06:03:22.942Z,44.13
2022-11-15T06:06:29.361Z,47.45
2022-11-15T06:09:34.069Z,44.83
2022-11-15T06:12:38.564Z,47.38
2022-11-15T06:15:44.394Z,41.97
2022-11-15T06:18:49.100Z,44.10
2022-11-15T06:21:54.043Z,46.78
2022-11-15T06:25:04.054Z,45.72
2022-11-15T06:28:09.753Z,44.85
2022-11-15T06:31:14.348Z,45.03
2022-11-15T06:34:18.899Z,48.60
2022-11-15T06:37:23.441Z,47.55
2022-11-15T06:40:28.194Z,45.08
2022-11-15T06:43:34.993Z,47.22
2022-11-15T06:46:39.600Z,46.58
2022-11-15T06:49:44.435Z,48.30
2022-11-15T06:52:48.957Z,48.67
2022-11-15T06:55:55.649Z,50.33
2022-11-15T06:59:00.399Z,50.33
2022-11-15T07:02:05.131Z,50.30
2022-11-15T07:05:09.963Z,50.20
2022-11-15T07:08:14.376Z,54.55
2022-11-15T07:11:18.975Z,56.90
2022-11-15T07:14:23.253Z,53.45
2022-11-15T07:17:28.020Z,48.78
2022-11-15T07:20:32.450Z,62.90
2022-11-15T07:23:40.514Z,52.88
2022-11-15T07:26:45.042Z,52.88
2022-11-15T07:29:49.896Z,50.67
2022-11-15T07:33:01.373Z,45.22
2022-11-15T07:36:07.332Z,50.00
2022-11-15T07:39:13.241Z,48.92
2022-11-15T07:42:36.409Z,48.55
2022-11-15T07:45:45.831Z,45.38
2022-11-15T07:48:50.108Z,49.15
2022-11-15T07:51:54.597Z,50.63
2022-11-15T07:54:59.134Z,45.95
2022-11-15T07:58:05.644Z,54.22
2022-11-15T08:01:11.430Z,48.03
2022-11-15T08:04:16.225Z,47.15
2022-11-15T08:07:22.041Z,50.53
2022-11-15T08:10:27.867Z,54.35
2022-11-15T08:13:32.709Z,60.65
2022-11-15T08:16:37.176Z,57.83
2022-11-15T08:19:41.789Z,52.88
2022-11-15T08:22:46.638Z,53.33
2022-11-15T08:25:51.339Z,59.63
2022-11-15T08:28:55.996Z,53.38
2022-11-15T08:32:00.237Z,53.67
2022-11-15T08:35:05.331Z,63.03
2022-11-15T08:38:09.784Z,62.78
2022-11-15T08:41:24.922Z,64.00
2022-11-15T08:44:29.714Z,65.05
2022-11-15T08:47:34.607Z,67.35
2022-11-15T08:50:38.998Z,67.00
2022-11-15T08:53:44.036Z,64.88
2022-11-15T08:56:48.861Z,71.03
2022-11-15T08:59:53.364Z,63.80
2022-11-15T09:02:57.984Z,68.75
2022-11-15T09:06:06.924Z,64.40
2022-11-15T09:09:11.401Z,66.78
2022-11-15T09:12:15.853Z,64.80
2022-11-15T09:15:20.910Z,62.03
2022-11-15T09:18:25.298Z,66.30
2022-11-15T09:21:30.765Z,73.07
2022-11-15T09:24:36.275Z,74.32
2022-11-15T09:27:40.908Z,78.32
2022-11-15T09:30:45.838Z,81.18
2022-11-15T09:33:50.208Z,83.45
2022-11-15T09:36:54.837Z,72.47
2022-11-15T09:39:59.253Z,70.22
2022-11-15T09:43:26.885Z,76.22
2022-11-15T09:46:52.745Z,92.97
2022-11-15T09:49:38.402Z,70.53
2022-11-15T09:52:41.386Z,77.80
2022-11-15T09:55:39.578Z,83.53
2022-11-15T09:58:46.311Z,97.03
2022-11-15T10:01:45.916Z,69.75
2022-11-15T10:04:32.819Z,67.32
2022-11-15T10:08:00.757Z,67.35
2022-11-15T10:11:00.538Z,62.63
2022-11-15T10:14:00.577Z,65.38
2022-11-15T10:17:03.648Z,60.30
2022-11-15T10:20:08.466Z,67.30
2022-11-15T10:22:57.449Z,64.70
2022-11-15T10:25:42.944Z,66.97
2022-11-15T10:28:32.710Z,67.15
2022-11-15T10:31:30.004Z,65.10
2022-11-15T10:34:21.592Z,62.22
2022-11-15T10:37:07.258Z,71.15
2022-11-15T10:40:07.848Z,66.53
2022-11-15T10:43:29.185Z,70.00
2022-11-15T10:49:31.518Z,64.38
2022-11-15T10:52:20.361Z,62.38
2022-11-15T10:55:12.254Z,59.45
2022-11-15T10:58:20.305Z,63.45
2022-11-15T11:01:25.545Z,62.92
2022-11-15T11:04:11.565Z,67.95
2022-11-15T11:06:59.487Z,72.85
2022-11-15T11:09:45.348Z,63.72
2022-11-15T11:12:34.435Z,69.10
2022-11-15T11:15:20.764Z,70.93
2022-11-15T11:18:22.001Z,68.55
2022-11-15T11:21:15.551Z,70.47
2022-11-15T11:24:11.663Z,68.88
2022-11-15T11:27:07.685Z,67.28
2022-11-15T11:30:08.911Z,73.35
2022-11-15T11:33:05.329Z,69.35
2022-11-15T11:36:22.164Z,68.47
2022-11-15T11:39:39.054Z,64.10
2022-11-15T11:42:33.845Z,59.78
2022-11-15T11:45:28.455Z,60.95
2022-11-15T11:48:20.552Z,63.10
2022-11-15T11:51:29.957Z,60.38
2022-11-15T11:54:32.602Z,67.38
2022-11-15T11:57:52.298Z,68.53
2022-11-15T12:00:50.506Z,64.03
2022-11-15T12:03:45.962Z,66.57
2022-11-15T12:06:42.351Z,66.40
2022-11-15T12:09:40.338Z,62.45
2022-11-15T12:12:55.349Z,63.60
2022-11-15T12:15:49.869Z,63.88
2022-11-15T12:18:35.898Z,66.03
2022-11-15T12:21:28.739Z,63.67
2022-11-15T12:24:29.560Z,61.67
2022-11-15T12:27:32.003Z,61.80
2022-11-15T12:30:22.898Z,65.68
2022-11-15T12:33:37.197Z,65.95
2022-11-15T12:36:22.926Z,70.68
2022-11-15T12:39:10.759Z,65.80
2022-11-15T12:41:56.339Z,68.70
2022-11-15T12:44:41.841Z,68.55
2022-11-15T12:47:28.503Z,63.25
2022-11-15T12:50:37.884Z,62.50
2022-11-15T12:53:28.675Z,61.67
2022-11-15T12:56:14.037Z,64.30
2022-11-15T12:59:03.284Z,54.83
2022-11-15T13:01:49.378Z,60.40
2022-11-15T13:04:35.201Z,60.45
2022-11-15T13:07:36.401Z,58.05
2022-11-15T13:10:28.633Z,53.92
2022-11-15T13:13:44.578Z,51.90
2022-11-15T13:16:31.375Z,52.50
2022-11-15T13:19:27.217Z,57.38
2022-11-15T13:22:31.787Z,54.13
2022-11-15T13:25:26.483Z,57.50
2022-11-15T13:28:18.841Z,54.90
2022-11-15T13:31:26.862Z,55.13
2022-11-15T13:34:50.993Z,52.70
2022-11-15T13:37:37.728Z,48.38
2022-11-15T13:40:34.001Z,49.13
2022-11-15T13:43:22.456Z,49.45
2022-11-15T13:46:12.506Z,48.20
2022-11-15T13:48:59.419Z,47.60
2022-11-15T13:51:58.274Z,50.10
2022-11-15T13:54:46.418Z,49.92
2022-11-15T13:57:55.209Z,50.63
2022-11-15T14:00:45.921Z,49.75
2022-11-15T14:03:43.113Z,47.45
2022-11-15T14:06:31.580Z,51.78
2022-11-15T14:09:46.219Z,54.78
2022-11-15T14:12:36.383Z,53.08
2022-11-15T14:15:39.660Z,49.72
2022-11-15T14:18:47.334Z,51.67
2022-11-15T14:21:33.588Z,53.47
2022-11-15T14:24:23.079Z,50.22
2022-11-15T14:27:19.400Z,47.63
2022-11-15T14:30:05.827Z,51.20
2022-11-15T14:32:51.900Z,55.72
2022-11-15T14:35:39.848Z,54.00
2022-11-15T14:38:26.712Z,51.63
2022-11-15T14:41:33.610Z,47.60
2022-11-15T14:44:21.550Z,52.80
2022-11-15T14:47:07.537Z,53.17
2022-11-15T14:49:53.687Z,54.40
2022-11-15T14:52:39.450Z,55.42
2022-11-15T14:55:36.134Z,57.70
2022-11-15T14:58:21.825Z,62.38
2022-11-15T15:01:24.961Z,56.63
2022-11-15T15:04:11.769Z,49.78
2022-11-15T15:06:57.343Z,51.20
2022-11-15T15:09:43.552Z,50.95
2022-11-15T15:12:30.189Z,49.45
2022-11-15T15:15:27.414Z,52.33
2022-11-15T15:18:12.879Z,50.25
2022-11-15T15:21:08.430Z,52.42
2022-11-15T15:23:57.863Z,48.55
2022-11-15T15:26:45.488Z,51.30
2022-11-15T15:29:31.225Z,54.45
2022-11-15T15:32:17.529Z,49.58
2022-11-15T15:35:03.033Z,43.80
2022-11-15T15:37:49.927Z,44.60
2022-11-15T15:40:35.215Z,37.45
2022-11-15T15:43:20.869Z,53.90
2022-11-15T15:46:18.883Z,39.15
2022-11-15T15:49:04.836Z,37.28
2022-11-15T15:51:50.414Z,42.60
2022-11-15T15:54:37.321Z,42.95
2022-11-15T15:57:22.871Z,40.33
2022-11-15T16:00:09.991Z,37.08
2022-11-15T16:03:00.065Z,43.13
2022-11-15T16:05:46.163Z,44.25
2022-11-15T16:08:42.411Z,41.53
2022-11-15T16:11:33.343Z,40.53
2022-11-15T16:14:19.085Z,40.97
2022-11-15T16:17:04.608Z,40.65
2022-11-15T16:19:50.095Z,40.47
2022-11-15T16:22:35.709Z,44.88
2022-11-15T16:25:21.445Z,45.55
2022-11-15T16:28:33.518Z,44.72
2022-11-15T16:31:22.139Z,42.50
2022-11-15T16:34:07.820Z,43.53
2022-11-15T16:36:54.392Z,47.38
2022-11-15T16:39:40.056Z,41.22
2022-11-15T16:42:25.664Z,43.75
2022-11-15T16:45:14.550Z,53.58
2022-11-15T16:48:00.373Z,48.50
2022-11-15T16:50:46.373Z,43.33
2022-11-15T16:53:32.162Z,48.25
2022-11-15T16:56:27.580Z,48.38
2022-11-15T16:59:17.549Z,50.08
2022-11-15T17:02:03.171Z,48.88
2022-11-15T17:04:48.929Z,51.20
2022-11-15T17:07:34.426Z,46.63
2022-11-15T17:10:24.299Z,47.70
2022-11-15T17:13:13.335Z,52.72
2022-11-15T17:16:16.403Z,46.75
2022-11-15T17:19:02.221Z,46.23
2022-11-15T17:21:51.803Z,48.58
2022-11-15T17:24:37.217Z,48.00
2022-11-15T17:27:23.820Z,46.67
2022-11-15T17:30:13.137Z,53.13
2022-11-15T17:33:01.026Z,47.67
2022-11-15T17:35:46.677Z,44.65
2022-11-15T17:38:32.968Z,48.00
2022-11-15T17:41:21.084Z,50.83
2022-11-15T17:44:07.127Z,46.25
2022-11-15T17:46:52.542Z,46.85
2022-11-15T17:49:40.766Z,46.08
2022-11-15T17:52:27.446Z,46.53
2022-11-15T17:55:13.065Z,47.75
2022-11-15T17:57:58.540Z,47.60
2022-11-15T18:00:47.371Z,43.20
2022-11-15T18:03:37.456Z,42.38
2022-11-15T18:06:24.648Z,45.60
2022-11-15T18:09:10.660Z,47.45
2022-11-15T18:11:56.402Z,44.22
2022-11-15T18:14:42.277Z,45.92
2022-11-15T18:17:28.468Z,45.38
2022-11-15T18:20:14.221Z,44.50
2022-11-15T18:22:59.662Z,44.83
2022-11-15T18:25:51.776Z,51.72
2022-11-15T18:28:39.298Z,47.70
2022-11-15T18:31:27.356Z,43.70
2022-11-15T18:34:13.175Z,46.00
2022-11-15T18:36:59.260Z,44.47
2022-11-15T18:39:46.530Z,42.25
2022-11-15T18:42:34.385Z,40.45
2022-11-15T18:45:24.013Z,40.35
2022-11-15T18:48:10.251Z,42.20
2022-11-15T18:51:05.161Z,43.63
2022-11-15T18:53:55.629Z,40.47
2022-11-15T18:56:41.530Z,38.97
2022-11-15T18:59:27.848Z,39.47
2022-11-15T19:02:13.768Z,45.58
2022-11-15T19:04:59.077Z,42.08
2022-11-15T19:07:49.529Z,45.35
2022-11-15T19:10:35.351Z,44.28
2022-11-15T19:13:21.125Z,52.78
2022-11-15T19:16:08.228Z,45.15
2022-11-15T19:18:55.577Z,42.70
2022-11-15T19:21:41.573Z,39.25
2022-11-15T19:24:27.848Z,43.95
2022-11-15T19:27:13.651Z,45.75
2022-11-15T19:29:58.988Z,43.20
2022-11-15T19:32:44.745Z,45.65
2022-11-15T19:35:30.103Z,40.47
2022-11-15T19:38:15.857Z,41.78
2022-11-15T19:41:05.373Z,41.10
2022-11-15T19:43:51.589Z,46.22
2022-11-15T19:46:38.270Z,41.25
2022-11-15T19:49:24.231Z,38.17
2022-11-15T19:52:12.342Z,39.33
2022-11-15T19:54:57.981Z,41.58
2022-11-15T19:57:43.716Z,38.20
2022-11-15T20:00:29.261Z,38.60
2022-11-15T20:03:15.020Z,39.47
2022-11-15T20:06:05.938Z,38.47
2022-11-15T20:08:52.139Z,35.97
2022-11-15T20:11:39.377Z,36.83
2022-11-15T20:14:25.309Z,39.55
2022-11-15T20:17:10.576Z,39.92
2022-11-15T20:19:56.140Z,41.50
2022-11-15T20:22:41.724Z,36.45
2022-11-15T20:25:27.373Z,40.05
2022-11-15T20:28:25.589Z,39.25
2022-11-15T20:31:11.514Z,40.85
2022-11-15T20:33:57.438Z,43.65
2022-11-15T20:36:42.901Z,41.80
2022-11-15T20:39:28.650Z,45.00
2022-11-15T20:42:14.344Z,45.20
2022-11-15T20:45:00.079Z,43.17
2022-11-15T20:47:45.773Z,41.65
2022-11-15T20:50:46.149Z,44.47
2022-11-15T20:53:31.927Z,44.25
2022-11-15T20:56:20.580Z,48.33
2022-11-15T20:59:06.647Z,38.53
2022-11-15T21:01:52.093Z,42.88
2022-11-15T21:04:37.863Z,43.30
2022-11-15T21:07:23.684Z,46.13
2022-11-15T21:10:28.398Z,44.70
2022-11-15T21:13:14.308Z,50.17
2022-11-15T21:16:00.559Z,43.60
2022-11-15T21:18:46.084Z,47.70
2022-11-15T21:21:31.785Z,44.45
2022-11-15T21:24:18.144Z,49.97
2022-11-15T21:27:04.110Z,46.78
2022-11-15T21:29:49.546Z,49.72
2022-11-15T21:32:35.352Z,47.55
2022-11-15T21:35:21.040Z,52.83
2022-11-15T21:38:06.905Z,43.28
2022-11-15T21:40:53.528Z,45.03
2022-11-15T21:43:39.126Z,48.58
2022-11-15T21:46:24.643Z,43.85
2022-11-15T21:49:10.398Z,40.03
2022-11-15T21:51:55.738Z,40.05
2022-11-15T21:54:44.378Z,38.13
2022-11-15T21:57:30.225Z,44.30
2022-11-15T22:00:36.314Z,40.40
2022-11-15T22:03:21.688Z,38.75
2022-11-15T22:06:09.125Z,36.40
2022-11-15T22:08:56.565Z,30.30
2022-11-15T22:11:42.317Z,29.00
2022-11-15T22:14:28.180Z,28.75
2022-11-15T22:17:13.891Z,35.05
2022-11-15T22:20:07.771Z,34.47
2022-11-15T22:23:05.652Z,32.10
2022-11-15T22:25:52.092Z,34.38
2022-11-15T22:28:38.045Z,27.45
2022-11-15T22:31:23.848Z,23.48
2022-11-15T22:34:09.516Z,26.80
2022-11-15T22:37:21.615Z,28.85
2022-11-15T22:40:01.245Z,28.20
2022-11-15T22:42:46.911Z,31.42
2022-11-15T22:45:33.178Z,28.25
2022-11-15T22:48:30.075Z,33.90
2022-11-15T22:51:15.537Z,33.15
2022-11-15T22:54:01.118Z,32.80
2022-11-15T22:56:46.573Z,31.58
2022-11-15T22:59:32.229Z,31.67
2022-11-15T23:02:17.769Z,30.42
2022-11-15T23:05:03.819Z,31.90
2022-11-15T23:07:49.880Z,31.00
2022-11-15T23:10:53.962Z,27.63
2022-11-15T23:13:39.397Z,28.75
2022-11-15T23:16:26.161Z,39.22
2022-11-15T23:19:12.920Z,37.03
2022-11-15T23:22:17.156Z,35.67
2022-11-15T23:25:02.843Z,35.95
2022-11-15T23:27:48.313Z,38.15
2022-11-15T23:30:54.074Z,38.05
2022-11-15T23:33:57.781Z,39.45
2022-11-15T23:36:43.736Z,40.42
2022-11-15T23:39:29.429Z,36.67
2022-11-15T23:42:19.716Z,35.58
2022-11-15T23:45:07.032Z,44.83
2022-11-15T23:47:57.035Z,40.45
2022-11-15T23:50:48.069Z,43.00
2022-11-15T23:53:33.795Z,40.85
2022-11-15T23:56:20.662Z,33.15
2022-11-15T23:59:06.794Z,34.65
